createdAt,value
2016-05-19T00:00:35.573Z,0
2016-05-19T00:01:35.247Z,0
2016-05-19T00:02:35.609Z,0
2016-05-19T00:03:35.581Z,0
2016-05-19T00:04:35.817Z,0
2016-05-19T00:05:35.820Z,0
2016-05-19T00:06:35.806Z,0
2016-05-19T00:07:35.622Z,0
2016-05-19T00:08:35.578Z,0
2016-05-19T00:09:36.128Z,0
2016-05-19T00:10:35.662Z,0
2016-05-19T00:11:35.117Z,0
2016-05-19T00:12:35.870Z,0
2016-05-19T00:13:35.608Z,0
2016-05-19T00:14:49.673Z,0
2016-05-19T00:15:35.628Z,0
2016-05-19T00:16:35.663Z,0
2016-05-19T00:17:35.634Z,0
2016-05-19T00:18:35.152Z,0
2016-05-19T00:19:35.671Z,0
2016-05-19T00:20:35.626Z,0
2016-05-19T00:21:35.519Z,0
2016-05-19T00:22:35.475Z,0
2016-05-19T00:23:50.259Z,0
2016-05-19T00:24:35.653Z,0
2016-05-19T00:25:35.702Z,0
2016-05-19T00:26:35.642Z,0
2016-05-19T00:27:35.645Z,0
2016-05-19T00:28:35.695Z,0
2016-05-19T00:29:36.088Z,0
2016-05-19T00:30:49.606Z,0
2016-05-19T00:31:35.687Z,0
2016-05-19T00:32:35.048Z,0
2016-05-19T00:33:35.708Z,0
2016-05-19T00:34:35.929Z,0
2016-05-19T00:35:49.760Z,0
2016-05-19T00:36:35.529Z,0
2016-05-19T00:37:35.594Z,0
2016-05-19T00:38:35.550Z,0
2016-05-19T00:39:35.693Z,0
2016-05-19T00:40:35.945Z,0
2016-05-19T00:41:35.558Z,0
2016-05-19T00:42:35.561Z,0
2016-05-19T00:43:35.719Z,0
2016-05-19T00:44:35.581Z,0
2016-05-19T00:45:36.162Z,0
2016-05-19T00:46:35.758Z,0
2016-05-19T00:47:35.589Z,0
2016-05-19T00:48:35.749Z,0
2016-05-19T00:49:35.751Z,0
2016-05-19T00:50:35.972Z,0
2016-05-19T00:51:35.757Z,0
2016-05-19T00:52:35.430Z,0
2016-05-19T00:53:36.590Z,0
2016-05-19T00:54:35.593Z,0
2016-05-19T00:55:35.799Z,0
2016-05-19T00:56:35.599Z,0
2016-05-19T00:57:35.757Z,0
2016-05-19T00:58:35.806Z,0
2016-05-19T00:59:35.607Z,0
2016-05-19T01:00:35.687Z,0
2016-05-19T01:01:36.767Z,0
2016-05-19T01:02:35.817Z,0
2016-05-19T01:03:35.367Z,0
2016-05-19T01:04:34.823Z,0
2016-05-19T01:05:35.623Z,0
2016-05-19T01:06:36.093Z,0
2016-05-19T01:07:36.112Z,0
2016-05-19T01:08:36.287Z,0
2016-05-19T01:09:35.773Z,0
2016-05-19T01:10:35.511Z,0
2016-05-19T01:11:35.997Z,0
2016-05-19T01:12:35.797Z,0
2016-05-19T01:13:49.581Z,0
2016-05-19T01:14:36.194Z,0
2016-05-19T01:15:35.821Z,0
2016-05-19T01:16:35.839Z,0
2016-05-19T01:17:35.858Z,0
2016-05-19T01:18:36.064Z,0
2016-05-19T01:19:35.832Z,0
2016-05-19T01:20:36.084Z,0
2016-05-19T01:21:35.884Z,0
2016-05-19T01:22:35.919Z,0
2016-05-19T01:23:35.780Z,0
2016-05-19T01:24:36.095Z,0
2016-05-19T01:25:35.863Z,0
2016-05-19T01:26:35.694Z,0
2016-05-19T01:27:36.088Z,0
2016-05-19T01:28:35.387Z,0
2016-05-19T01:29:35.859Z,0
2016-05-19T01:30:35.783Z,0
2016-05-19T01:31:50.160Z,0
2016-05-19T01:32:35.882Z,0
2016-05-19T01:33:35.916Z,0
2016-05-19T01:34:35.903Z,0
2016-05-19T01:35:35.796Z,0
2016-05-19T01:36:35.956Z,0
2016-05-19T01:37:36.098Z,0
2016-05-19T01:38:36.134Z,0
2016-05-19T01:40:35.950Z,0
2016-05-19T01:41:35.422Z,0
2016-05-19T01:42:35.769Z,0
2016-05-19T01:43:35.912Z,0
2016-05-19T01:44:35.915Z,0
2016-05-19T01:45:35.917Z,0
2016-05-19T01:46:35.764Z,0
2016-05-19T01:47:35.766Z,0
2016-05-19T01:48:35.925Z,0
2016-05-19T01:49:36.147Z,0
2016-05-19T01:50:35.634Z,0
2016-05-19T01:51:35.808Z,0
2016-05-19T01:52:35.842Z,0
2016-05-19T01:53:50.111Z,0
2016-05-19T01:54:35.816Z,0
2016-05-19T01:55:49.772Z,0
2016-05-19T01:56:35.728Z,0
2016-05-19T01:57:35.777Z,0
2016-05-19T01:58:35.796Z,0
2016-05-19T01:59:35.986Z,0
2016-05-19T02:00:36.004Z,0
2016-05-19T02:02:35.837Z,0
2016-05-19T02:03:35.825Z,0
2016-05-19T02:04:35.813Z,0
2016-05-19T02:05:49.799Z,0
2016-05-19T02:06:35.801Z,0
2016-05-19T02:07:35.992Z,0
2016-05-19T02:08:36.042Z,0
2016-05-19T02:09:36.201Z,0
2016-05-19T02:10:36.204Z,0
2016-05-19T02:11:36.050Z,0
2016-05-19T02:12:36.021Z,0
2016-05-19T02:13:35.853Z,0
2016-05-19T02:14:36.011Z,0
2016-05-19T02:15:36.264Z,0
2016-05-19T02:16:36.281Z,0
2016-05-19T02:17:35.863Z,0
2016-05-19T02:18:36.022Z,0
2016-05-19T02:19:50.305Z,0
2016-05-19T02:20:35.886Z,0
2016-05-19T02:21:35.889Z,0
2016-05-19T02:22:36.297Z,0
2016-05-19T02:23:35.879Z,0
2016-05-19T02:24:36.249Z,0
2016-05-19T02:25:35.924Z,0
2016-05-19T02:26:35.941Z,0
2016-05-19T02:27:36.475Z,0
2016-05-19T02:28:36.228Z,0
2016-05-19T02:29:35.903Z,0
2016-05-19T02:30:36.030Z,0
2016-05-19T02:31:35.908Z,0
2016-05-19T02:32:36.051Z,0
2016-05-19T02:33:35.945Z,0
2016-05-19T02:34:36.104Z,0
2016-05-19T02:35:36.154Z,0
2016-05-19T02:36:36.453Z,0
2016-05-19T02:37:50.565Z,0
2016-05-19T02:39:36.539Z,0
2016-05-19T02:40:35.992Z,0
2016-05-19T02:41:50.256Z,0
2016-05-19T02:42:35.771Z,0
2016-05-19T02:43:36.490Z,0
2016-05-19T02:44:50.364Z,0
2016-05-19T02:46:50.113Z,0
2016-05-19T02:47:36.365Z,0
2016-05-19T02:48:36.618Z,0
2016-05-19T02:49:36.230Z,0
2016-05-19T02:50:50.319Z,0
2016-05-19T02:51:36.625Z,0
2016-05-19T02:52:36.415Z,0
2016-05-19T02:53:36.609Z,0
2016-05-19T02:54:36.322Z,0
2016-05-19T02:55:35.812Z,0
2016-05-19T02:56:36.301Z,0
2016-05-19T02:57:36.696Z,0
2016-05-19T02:58:36.482Z,0
2016-05-19T02:59:50.737Z,5
2016-05-19T03:00:36.460Z,5
2016-05-19T03:01:36.463Z,5
2016-05-19T03:02:36.685Z,5
2016-05-19T03:03:36.751Z,5
2016-05-19T03:04:36.317Z,5
2016-05-19T03:05:36.789Z,5
2016-05-19T03:06:36.714Z,10
2016-05-19T03:07:36.216Z,10
2016-05-19T03:08:50.673Z,10
2016-05-19T03:09:36.519Z,10
2016-05-19T03:10:36.210Z,10
2016-05-19T03:11:36.697Z,10
2016-05-19T03:12:36.716Z,10
2016-05-19T03:14:36.487Z,10
2016-05-19T03:15:36.771Z,15
2016-05-19T03:16:36.742Z,15
2016-05-19T03:17:36.527Z,15
2016-05-19T03:18:50.794Z,15
2016-05-19T03:19:36.344Z,20
2016-05-19T03:20:36.910Z,20
2016-05-19T03:21:36.802Z,20
2016-05-19T03:22:50.993Z,25
2016-05-19T03:23:36.573Z,25
2016-05-19T03:24:36.513Z,25
2016-05-19T03:25:36.235Z,30
2016-05-19T03:26:36.518Z,30
2016-05-19T03:27:36.959Z,30
2016-05-19T03:28:36.571Z,35
2016-05-19T03:29:36.809Z,35
2016-05-19T03:30:36.514Z,40
2016-05-19T03:31:36.735Z,40
2016-05-19T03:32:36.535Z,40
2016-05-19T03:33:36.773Z,45
2016-05-19T03:34:36.369Z,45
2016-05-19T03:35:36.762Z,45
2016-05-19T03:36:36.562Z,50
2016-05-19T03:37:36.408Z,50
2016-05-19T03:38:36.878Z,50
2016-05-19T03:39:36.804Z,50
2016-05-19T03:40:36.556Z,50
2016-05-19T03:41:36.512Z,55
2016-05-19T03:42:36.843Z,55
2016-05-19T03:44:36.817Z,65
2016-05-19T03:45:36.585Z,70
2016-05-19T03:46:36.494Z,70
2016-05-19T03:47:36.450Z,75
2016-05-19T03:48:50.735Z,80
2016-05-19T03:49:36.894Z,80
2016-05-19T03:50:37.240Z,80
2016-05-19T03:51:36.602Z,85
2016-05-19T03:52:36.839Z,85
2016-05-19T03:53:36.795Z,90
2016-05-19T03:54:36.626Z,90
2016-05-19T03:55:36.597Z,95
2016-05-19T03:56:36.615Z,95
2016-05-19T03:57:36.634Z,100
2016-05-19T03:58:36.683Z,100
2016-05-19T03:59:36.717Z,105
2016-05-19T04:00:36.642Z,105
2016-05-19T04:01:50.675Z,105
2016-05-19T04:02:37.037Z,105
2016-05-19T04:03:37.071Z,110
2016-05-19T04:04:36.637Z,115
2016-05-19T04:05:36.342Z,115
2016-05-19T04:06:36.486Z,115
2016-05-19T04:07:36.629Z,120
2016-05-19T04:08:37.492Z,120
2016-05-19T04:09:37.042Z,125
2016-05-19T04:10:36.934Z,125
2016-05-19T04:12:36.893Z,130
2016-05-19T04:13:36.864Z,130
2016-05-19T04:14:36.366Z,130
2016-05-19T04:15:36.166Z,130
2016-05-19T04:16:36.044Z,130
2016-05-19T04:17:36.656Z,135
2016-05-19T04:18:36.877Z,135
2016-05-19T04:19:36.864Z,135
2016-05-19T04:20:36.679Z,135
2016-05-19T04:21:36.666Z,135
2016-05-19T04:22:36.747Z,135
2016-05-19T04:23:50.672Z,140
2016-05-19T04:24:36.722Z,140
2016-05-19T04:25:36.521Z,140
2016-05-19T04:26:36.712Z,140
2016-05-19T04:27:36.433Z,140
2016-05-19T04:28:36.936Z,140
2016-05-19T04:29:36.704Z,135
2016-05-19T04:30:36.457Z,130
2016-05-19T04:31:36.585Z,130
2016-05-19T04:32:36.759Z,130
2016-05-19T04:33:36.731Z,130
2016-05-19T04:34:36.967Z,130
2016-05-19T04:35:36.751Z,130
2016-05-19T04:36:36.582Z,125
2016-05-19T04:37:36.584Z,130
2016-05-19T04:38:36.838Z,130
2016-05-19T04:39:36.965Z,125
2016-05-19T04:40:36.686Z,125
2016-05-19T04:41:36.628Z,125
2016-05-19T04:42:36.770Z,125
2016-05-19T04:43:36.820Z,125
2016-05-19T04:44:36.119Z,125
2016-05-19T04:45:36.481Z,125
2016-05-19T04:46:36.499Z,125
2016-05-19T04:47:36.347Z,125
2016-05-19T04:48:36.646Z,130
2016-05-19T04:49:50.711Z,125
2016-05-19T04:50:36.652Z,125
2016-05-19T04:51:36.669Z,125
2016-05-19T04:52:36.516Z,125
2016-05-19T04:53:37.612Z,130
2016-05-19T04:54:51.131Z,130
2016-05-19T04:55:36.696Z,130
2016-05-19T04:56:36.698Z,130
2016-05-19T04:57:37.077Z,130
2016-05-19T04:58:36.844Z,135
2016-05-19T04:59:36.863Z,135
2016-05-19T05:00:50.960Z,135
2016-05-19T05:01:36.681Z,140
2016-05-19T05:02:36.746Z,140
2016-05-19T05:03:37.076Z,145
2016-05-19T05:04:36.860Z,155
2016-05-19T05:05:37.098Z,155
2016-05-19T05:06:36.866Z,155
2016-05-19T05:07:36.900Z,160
2016-05-19T05:08:36.793Z,165
2016-05-19T05:09:36.734Z,165
2016-05-19T05:10:36.736Z,170
2016-05-19T05:11:36.583Z,175
2016-05-19T05:12:36.914Z,180
2016-05-19T05:13:36.917Z,185
2016-05-19T05:14:37.106Z,185
2016-05-19T05:15:36.953Z,190
2016-05-19T05:16:36.940Z,190
2016-05-19T05:17:37.161Z,195
2016-05-19T05:19:51.042Z,200
2016-05-19T05:20:36.919Z,195
2016-05-19T05:21:37.422Z,195
2016-05-19T05:22:36.815Z,200
2016-05-19T05:23:37.208Z,200
2016-05-19T05:24:37.212Z,200
2016-05-19T05:25:37.433Z,200
2016-05-19T05:26:36.951Z,200
2016-05-19T05:27:36.813Z,200
2016-05-19T05:28:36.832Z,205
2016-05-19T05:30:37.055Z,205
2016-05-19T05:31:36.871Z,210
2016-05-19T05:32:37.015Z,210
2016-05-19T05:33:37.220Z,205
2016-05-19T05:34:36.879Z,205
2016-05-19T05:35:36.882Z,205
2016-05-19T05:36:36.321Z,205
2016-05-19T05:37:37.043Z,205
2016-05-19T05:38:36.749Z,205
2016-05-19T05:39:37.018Z,205
2016-05-19T05:40:37.270Z,205
2016-05-19T05:41:36.757Z,205
2016-05-19T05:43:37.091Z,205
2016-05-19T05:44:37.125Z,205
2016-05-19T05:45:37.128Z,205
2016-05-19T05:46:37.067Z,210
2016-05-19T05:47:37.055Z,210
2016-05-19T05:48:36.916Z,210
2016-05-19T05:49:37.092Z,210
2016-05-19T05:50:37.078Z,210
2016-05-19T05:51:36.925Z,210
2016-05-19T05:52:36.928Z,210
2016-05-19T05:53:38.117Z,210
2016-05-19T05:54:37.417Z,210
2016-05-19T05:55:37.155Z,215
2016-05-19T05:56:36.985Z,220
2016-05-19T05:57:36.988Z,225
2016-05-19T05:58:37.130Z,225
2016-05-19T05:59:37.118Z,250
2016-05-19T06:00:51.449Z,275
2016-05-19T06:01:37.546Z,275
2016-05-19T06:02:37.174Z,270
2016-05-19T06:03:37.191Z,280
2016-05-19T06:04:37.163Z,300
2016-05-19T06:05:51.229Z,295
2016-05-19T06:06:36.715Z,260
2016-05-19T06:07:37.171Z,230
2016-05-19T06:08:51.361Z,235
2016-05-19T06:09:36.879Z,240
2016-05-19T06:10:37.242Z,240
2016-05-19T06:11:37.603Z,230
2016-05-19T06:12:37.293Z,230
2016-05-19T06:13:37.468Z,230
2016-05-19T06:14:51.331Z,235
2016-05-19T06:15:36.771Z,235
2016-05-19T06:16:37.258Z,235
2016-05-19T06:17:37.464Z,235
2016-05-19T06:18:51.325Z,245
2016-05-19T06:19:37.109Z,240
2016-05-19T06:20:36.643Z,245
2016-05-19T06:21:37.147Z,245
2016-05-19T06:22:40.070Z,245
2016-05-19T06:23:37.480Z,245
2016-05-19T06:24:37.217Z,250
2016-05-19T06:25:51.392Z,250
2016-05-19T06:26:37.347Z,250
2016-05-19T06:27:37.146Z,255
2016-05-19T06:28:37.352Z,255
2016-05-19T06:29:37.589Z,260
2016-05-19T06:30:37.310Z,265
2016-05-19T06:31:37.752Z,265
2016-05-19T06:32:37.363Z,260
2016-05-19T06:33:37.600Z,265
2016-05-19T06:34:37.244Z,265
2016-05-19T06:35:37.371Z,270
2016-05-19T06:36:37.249Z,275
2016-05-19T06:37:37.407Z,275
2016-05-19T06:38:37.598Z,280
2016-05-19T06:39:37.273Z,280
2016-05-19T06:40:37.416Z,285
2016-05-19T06:41:37.293Z,285
2016-05-19T06:42:37.265Z,280
2016-05-19T06:43:51.706Z,285
2016-05-19T06:44:37.005Z,285
2016-05-19T06:45:37.461Z,290
2016-05-19T06:46:37.510Z,305
2016-05-19T06:47:37.467Z,310
2016-05-19T06:48:37.719Z,295
2016-05-19T06:49:37.502Z,300
2016-05-19T06:50:37.536Z,295
2016-05-19T06:51:37.523Z,295
2016-05-19T06:52:37.433Z,295
2016-05-19T06:53:37.514Z,290
2016-05-19T06:54:37.422Z,290
2016-05-19T06:55:37.784Z,280
2016-05-19T06:56:37.787Z,275
2016-05-19T06:57:37.415Z,265
2016-05-19T06:58:37.620Z,265
2016-05-19T06:59:37.592Z,260
2016-05-19T07:00:37.579Z,255
2016-05-19T07:01:37.410Z,255
2016-05-19T07:02:37.615Z,250
2016-05-19T07:03:37.602Z,250
2016-05-19T07:04:37.590Z,250
2016-05-19T07:05:37.811Z,250
2016-05-19T07:06:37.845Z,250
2016-05-19T07:07:37.629Z,250
2016-05-19T07:08:38.288Z,255
2016-05-19T07:09:38.071Z,260
2016-05-19T07:10:37.887Z,265
2016-05-19T07:11:37.906Z,270
2016-05-19T07:12:37.704Z,275
2016-05-19T07:13:37.692Z,320
2016-05-19T07:14:37.726Z,375
2016-05-19T07:15:37.744Z,450
2016-05-19T07:16:37.700Z,430
2016-05-19T07:17:37.922Z,335
2016-05-19T07:18:37.721Z,310
2016-05-19T07:19:37.723Z,315
2016-05-19T07:20:38.133Z,325
2016-05-19T07:21:37.589Z,335
2016-05-19T07:22:37.747Z,310
2016-05-19T07:23:51.891Z,305
2016-05-19T07:24:37.644Z,300
2016-05-19T07:25:37.803Z,305
2016-05-19T07:26:37.821Z,305
2016-05-19T07:27:37.824Z,310
2016-05-19T07:28:37.827Z,310
2016-05-19T07:29:37.517Z,315
2016-05-19T07:30:37.847Z,315
2016-05-19T07:31:37.835Z,320
2016-05-19T07:32:37.758Z,325
2016-05-19T07:33:38.105Z,325
2016-05-19T07:34:37.905Z,330
2016-05-19T07:35:37.877Z,335
2016-05-19T07:36:37.894Z,335
2016-05-19T07:37:37.897Z,335
2016-05-19T07:38:38.103Z,335
2016-05-19T07:39:37.996Z,340
2016-05-19T07:40:52.374Z,345
2016-05-19T07:41:37.986Z,350
2016-05-19T07:42:38.160Z,355
2016-05-19T07:43:37.976Z,365
2016-05-19T07:44:37.978Z,365
2016-05-19T07:45:37.873Z,370
2016-05-19T07:46:38.000Z,380
2016-05-19T07:47:37.986Z,375
2016-05-19T07:48:37.990Z,380
2016-05-19T07:49:52.680Z,385
2016-05-19T07:50:52.151Z,390
2016-05-19T07:51:38.060Z,390
2016-05-19T07:52:52.891Z,395
2016-05-19T07:53:52.722Z,395
2016-05-19T07:54:52.380Z,395
2016-05-19T07:55:38.336Z,395
2016-05-19T07:56:37.620Z,400
2016-05-19T07:57:38.092Z,400
2016-05-19T07:58:38.110Z,405
2016-05-19T07:59:38.160Z,405
2016-05-19T08:00:37.991Z,405
2016-05-19T08:01:38.149Z,405
2016-05-19T08:02:38.027Z,405
2016-05-19T08:03:38.623Z,405
2016-05-19T08:04:37.751Z,405
2016-05-19T08:05:38.410Z,405
2016-05-19T08:06:38.038Z,405
2016-05-19T08:07:38.635Z,405
2016-05-19T08:08:39.013Z,410
2016-05-19T08:09:38.233Z,410
2016-05-19T08:10:37.783Z,415
2016-05-19T08:11:38.098Z,425
2016-05-19T08:12:38.288Z,425
2016-05-19T08:13:38.276Z,435
2016-05-19T08:14:38.325Z,445
2016-05-19T08:15:38.187Z,435
2016-05-19T08:16:38.549Z,435
2016-05-19T08:17:38.334Z,435
2016-05-19T08:18:38.211Z,435
2016-05-19T08:19:38.245Z,445
2016-05-19T08:20:37.887Z,445
2016-05-19T08:21:38.062Z,535
2016-05-19T08:22:38.425Z,515
2016-05-19T08:23:38.270Z,485
2016-05-19T08:24:38.852Z,495
2016-05-19T08:25:38.416Z,550
2016-05-19T08:26:38.857Z,615
2016-05-19T08:27:38.469Z,665
2016-05-19T08:28:38.472Z,705
2016-05-19T08:29:38.491Z,665
2016-05-19T08:30:38.321Z,640
2016-05-19T08:31:51.246Z,625
2016-05-19T08:32:38.514Z,525
2016-05-19T08:33:38.719Z,480
2016-05-19T08:34:39.036Z,460
2016-05-19T08:35:38.663Z,460
2016-05-19T08:36:38.760Z,465
2016-05-19T08:37:38.402Z,470
2016-05-19T08:39:52.751Z,460
2016-05-19T08:40:38.863Z,460
2016-05-19T08:41:39.226Z,470
2016-05-19T08:42:38.869Z,470
2016-05-19T08:43:38.575Z,465
2016-05-19T08:44:38.656Z,465
2016-05-19T08:45:38.409Z,470
2016-05-19T08:46:38.723Z,475
2016-05-19T08:47:38.242Z,475
2016-05-19T08:48:38.775Z,480
2016-05-19T08:49:38.715Z,485
2016-05-19T08:50:38.968Z,490
2016-05-19T08:51:38.925Z,490
2016-05-19T08:52:38.973Z,495
2016-05-19T08:53:39.086Z,500
2016-05-19T08:54:38.995Z,500
2016-05-19T08:55:38.951Z,500
2016-05-19T08:57:38.909Z,500
2016-05-19T08:58:39.130Z,500
2016-05-19T08:59:39.274Z,495
2016-05-19T09:00:39.152Z,500
2016-05-19T09:01:38.936Z,500
2016-05-19T09:02:39.111Z,500
2016-05-19T09:03:38.847Z,500
2016-05-19T09:04:38.788Z,500
2016-05-19T09:05:39.072Z,500
2016-05-19T09:06:38.808Z,500
2016-05-19T09:07:39.013Z,500
2016-05-19T09:08:39.391Z,500
2016-05-19T09:09:39.082Z,500
2016-05-19T09:10:39.272Z,505
2016-05-19T09:11:38.993Z,505
2016-05-19T09:12:38.915Z,505
2016-05-19T09:13:39.265Z,510
2016-05-19T09:14:39.142Z,510
2016-05-19T09:15:39.111Z,515
2016-05-19T09:16:38.771Z,510
2016-05-19T09:17:53.385Z,515
2016-05-19T09:18:39.309Z,520
2016-05-19T09:19:39.579Z,530
2016-05-19T09:20:39.378Z,525
2016-05-19T09:21:39.411Z,530
2016-05-19T09:22:39.020Z,535
2016-05-19T09:23:39.195Z,550
2016-05-19T09:24:39.432Z,550
2016-05-19T09:25:39.248Z,535
2016-05-19T09:26:39.706Z,520
2016-05-19T09:27:39.253Z,510
2016-05-19T09:28:39.255Z,500
2016-05-19T09:29:39.320Z,505
2016-05-19T09:30:39.370Z,500
2016-05-19T09:31:38.639Z,505
2016-05-19T09:32:39.517Z,530
2016-05-19T09:33:40.163Z,540
2016-05-19T09:34:40.415Z,555
2016-05-19T09:35:39.836Z,575
2016-05-19T09:36:39.839Z,585
2016-05-19T09:37:40.049Z,595
2016-05-19T09:38:40.130Z,605
2016-05-19T09:39:40.304Z,610
2016-05-19T09:40:40.447Z,620
2016-05-19T09:41:40.041Z,630
2016-05-19T09:42:39.949Z,640
2016-05-19T09:43:54.361Z,730
2016-05-19T09:44:39.986Z,730
2016-05-19T09:45:40.192Z,685
2016-05-19T09:46:40.273Z,680
2016-05-19T09:47:54.091Z,680
2016-05-19T09:48:39.560Z,805
2016-05-19T09:49:54.315Z,905
2016-05-19T09:50:39.971Z,790
2016-05-19T09:51:40.240Z,685
2016-05-19T09:52:40.429Z,635
2016-05-19T09:53:40.104Z,560
2016-05-19T09:54:39.967Z,580
2016-05-19T09:55:40.203Z,565
2016-05-19T09:57:40.178Z,565
2016-05-19T09:58:40.102Z,555
2016-05-19T09:59:40.308Z,555
2016-05-19T10:00:40.279Z,550
2016-05-19T10:01:40.328Z,550
2016-05-19T10:02:40.144Z,550
2016-05-19T10:03:39.897Z,550
2016-05-19T10:04:40.150Z,550
2016-05-19T10:05:40.355Z,550
2016-05-19T10:06:40.561Z,575
2016-05-19T10:07:40.330Z,570
2016-05-19T10:08:41.817Z,560
2016-05-19T10:09:40.053Z,570
2016-05-19T10:10:40.447Z,590
2016-05-19T10:11:40.730Z,600
2016-05-19T10:12:40.140Z,610
2016-05-19T10:13:40.439Z,610
2016-05-19T10:14:40.349Z,620
2016-05-19T10:15:40.429Z,640
2016-05-19T10:16:40.432Z,650
2016-05-19T10:17:40.341Z,665
2016-05-19T10:18:40.718Z,685
2016-05-19T10:19:40.315Z,680
2016-05-19T10:20:40.927Z,680
2016-05-19T10:21:40.524Z,680
2016-05-19T10:22:40.495Z,680
2016-05-19T10:23:40.888Z,675
2016-05-19T10:24:40.875Z,675
2016-05-19T10:25:40.706Z,675
2016-05-19T10:26:40.349Z,670
2016-05-19T10:27:40.587Z,660
2016-05-19T10:28:40.683Z,665
2016-05-19T10:29:54.673Z,660
2016-05-19T10:30:40.392Z,665
2016-05-19T10:31:40.800Z,670
2016-05-19T10:32:40.881Z,680
2016-05-19T10:33:40.556Z,690
2016-05-19T10:34:40.543Z,690
2016-05-19T10:35:41.702Z,690
2016-05-19T10:36:40.673Z,690
2016-05-19T10:37:40.988Z,695
2016-05-19T10:38:42.006Z,695
2016-05-19T10:39:40.775Z,695
2016-05-19T10:40:40.966Z,700
2016-05-19T10:41:41.108Z,710
2016-05-19T10:42:40.517Z,720
2016-05-19T10:43:43.333Z,735
2016-05-19T10:44:40.976Z,745
2016-05-19T10:45:40.900Z,750
2016-05-19T10:46:40.919Z,755
2016-05-19T10:47:41.094Z,765
2016-05-19T10:48:41.112Z,760
2016-05-19T10:49:40.958Z,765
2016-05-19T10:50:40.523Z,770
2016-05-19T10:51:40.745Z,775
2016-05-19T10:52:41.498Z,785
2016-05-19T10:53:41.657Z,785
2016-05-19T10:54:41.190Z,790
2016-05-19T10:55:41.365Z,795
2016-05-19T10:56:41.196Z,800
2016-05-19T10:57:41.089Z,795
2016-05-19T10:58:41.122Z,795
2016-05-19T10:59:41.079Z,790
2016-05-19T11:00:41.004Z,790
2016-05-19T11:01:41.100Z,790
2016-05-19T11:02:41.103Z,790
2016-05-19T11:03:41.167Z,790
2016-05-19T11:04:41.108Z,785
2016-05-19T11:05:41.125Z,785
2016-05-19T11:06:41.175Z,780
2016-05-19T11:07:55.306Z,780
2016-05-19T11:08:41.759Z,780
2016-05-19T11:09:41.669Z,775
2016-05-19T11:10:41.358Z,775
2016-05-19T11:11:41.188Z,775
2016-05-19T11:12:41.238Z,780
2016-05-19T11:13:41.398Z,775
2016-05-19T11:14:41.088Z,775
2016-05-19T11:15:41.263Z,775
2016-05-19T11:16:40.640Z,780
2016-05-19T11:17:41.315Z,775
2016-05-19T11:18:42.270Z,775
2016-05-19T11:19:41.085Z,775
2016-05-19T11:20:41.010Z,775
2016-05-19T11:21:40.888Z,775
2016-05-19T11:22:41.828Z,765
2016-05-19T11:23:43.018Z,765
2016-05-19T11:24:41.427Z,760
2016-05-19T11:25:41.446Z,755
2016-05-19T11:26:41.573Z,755
2016-05-19T11:27:41.701Z,755
2016-05-19T11:28:43.610Z,755
2016-05-19T11:29:41.519Z,755
2016-05-19T11:30:41.459Z,760
2016-05-19T11:31:41.259Z,755
2016-05-19T11:32:41.089Z,760
2016-05-19T11:34:41.250Z,755
2016-05-19T11:35:41.316Z,755
2016-05-19T11:36:41.147Z,755
2016-05-19T11:37:40.978Z,750
2016-05-19T11:38:41.386Z,750
2016-05-19T11:39:41.186Z,750
2016-05-19T11:40:41.344Z,750
2016-05-19T11:41:41.238Z,745
2016-05-19T11:42:41.289Z,740
2016-05-19T11:43:41.447Z,735
2016-05-19T11:44:41.605Z,735
2016-05-19T11:45:41.140Z,725
2016-05-19T11:46:41.721Z,720
2016-05-19T11:47:41.559Z,720
2016-05-19T11:48:41.772Z,715
2016-05-19T11:49:42.019Z,720
2016-05-19T11:50:41.719Z,725
2016-05-19T11:51:41.605Z,730
2016-05-19T11:52:41.812Z,735
2016-05-19T11:53:41.845Z,730
2016-05-19T11:54:43.034Z,740
2016-05-19T11:55:41.707Z,735
2016-05-19T11:56:42.130Z,745
2016-05-19T11:57:41.920Z,760
2016-05-19T11:58:41.928Z,770
2016-05-19T11:59:41.952Z,780
2016-05-19T12:00:56.078Z,790
2016-05-19T12:01:41.344Z,800
2016-05-19T12:02:42.005Z,800
2016-05-19T12:04:42.076Z,800
2016-05-19T12:05:42.190Z,805
2016-05-19T12:06:42.289Z,805
2016-05-19T12:07:56.421Z,800
2016-05-19T12:08:43.061Z,795
2016-05-19T12:09:42.768Z,790
2016-05-19T12:10:42.536Z,790
2016-05-19T12:11:42.900Z,785
2016-05-19T12:12:42.668Z,780
2016-05-19T12:13:56.846Z,775
2016-05-19T12:14:42.534Z,765
2016-05-19T12:15:43.693Z,755
2016-05-19T12:16:43.056Z,745
2016-05-19T12:17:43.589Z,745
2016-05-19T12:18:42.764Z,735
2016-05-19T12:19:43.127Z,725
2016-05-19T12:20:43.051Z,715
2016-05-19T12:21:42.709Z,720
2016-05-19T12:22:42.821Z,720
2016-05-19T12:23:42.949Z,720
2016-05-19T12:24:43.968Z,715
2016-05-19T12:25:43.001Z,715
2016-05-19T12:26:43.113Z,720
2016-05-19T12:27:43.195Z,725
2016-05-19T12:28:43.541Z,730
2016-05-19T12:29:42.996Z,730
2016-05-19T12:30:42.906Z,715
2016-05-19T12:31:42.534Z,705
2016-05-19T12:32:43.130Z,695
2016-05-19T12:33:43.007Z,685
2016-05-19T12:34:43.307Z,670
2016-05-19T12:35:57.234Z,655
2016-05-19T12:36:43.156Z,650
2016-05-19T12:37:43.128Z,640
2016-05-19T12:38:45.396Z,640
2016-05-19T12:39:42.680Z,640
2016-05-19T12:40:43.058Z,645
2016-05-19T12:41:43.404Z,645
2016-05-19T12:42:42.626Z,620
2016-05-19T12:43:43.331Z,605
2016-05-19T12:44:43.069Z,590
2016-05-19T12:45:43.133Z,580
2016-05-19T12:46:43.230Z,570
2016-05-19T12:47:43.124Z,565
2016-05-19T12:48:43.172Z,555
2016-05-19T12:49:43.129Z,550
2016-05-19T12:50:43.022Z,550
2016-05-19T12:51:43.353Z,555
2016-05-19T12:52:42.902Z,555
2016-05-19T12:53:43.483Z,560
2016-05-19T12:54:43.502Z,560
2016-05-19T12:55:43.363Z,565
2016-05-19T12:56:43.648Z,570
2016-05-19T12:57:43.369Z,580
2016-05-19T12:58:57.532Z,595
2016-05-19T12:59:43.360Z,610
2016-05-19T13:00:43.409Z,620
2016-05-19T13:01:43.349Z,640
2016-05-19T13:02:43.367Z,635
2016-05-19T13:03:43.463Z,640
2016-05-19T13:04:43.372Z,645
2016-05-19T13:05:43.484Z,645
2016-05-19T13:06:43.581Z,645
2016-05-19T13:07:43.553Z,635
2016-05-19T13:08:43.821Z,620
2016-05-19T13:09:44.558Z,605
2016-05-19T13:10:43.201Z,590
2016-05-19T13:11:43.078Z,585
2016-05-19T13:12:42.800Z,580
2016-05-19T13:13:43.944Z,570
2016-05-19T13:14:43.603Z,580
2016-05-19T13:15:43.933Z,570
2016-05-19T13:16:43.716Z,570
2016-05-19T13:17:43.860Z,610
2016-05-19T13:18:44.286Z,600
2016-05-19T13:19:43.460Z,630
2016-05-19T13:20:43.791Z,670
2016-05-19T13:21:43.418Z,675
2016-05-19T13:22:43.718Z,680
2016-05-19T13:23:44.002Z,680
2016-05-19T13:24:44.082Z,675
2016-05-19T13:25:43.429Z,670
2016-05-19T13:26:43.447Z,665
2016-05-19T13:27:43.185Z,655
2016-05-19T13:28:44.063Z,665
2016-05-19T13:29:57.457Z,665
2016-05-19T13:30:43.520Z,695
2016-05-19T13:32:43.416Z,690
2016-05-19T13:33:48.247Z,670
2016-05-19T13:34:44.000Z,660
2016-05-19T13:35:43.612Z,670
2016-05-19T13:36:44.099Z,665
2016-05-19T13:37:44.179Z,700
2016-05-19T13:38:47.807Z,720
2016-05-19T13:39:44.029Z,715
2016-05-19T13:40:44.062Z,745
2016-05-19T13:41:44.003Z,755
2016-05-19T13:42:44.147Z,750
2016-05-19T13:43:44.259Z,720
2016-05-19T13:44:44.573Z,730
2016-05-19T13:45:44.608Z,740
2016-05-19T13:46:45.001Z,745
2016-05-19T13:47:44.394Z,755
2016-05-19T13:48:45.225Z,755
2016-05-19T13:49:44.634Z,725
2016-05-19T13:50:44.808Z,690
2016-05-19T13:51:44.421Z,660
2016-05-19T13:52:44.377Z,640
2016-05-19T13:53:45.769Z,620
2016-05-19T13:54:44.819Z,610
2016-05-19T13:55:44.025Z,600
2016-05-19T13:56:44.559Z,595
2016-05-19T13:57:44.983Z,590
2016-05-19T13:58:48.018Z,600
2016-05-19T13:59:44.926Z,610
2016-05-19T14:00:58.134Z,610
2016-05-19T14:01:44.634Z,610
2016-05-19T14:02:44.857Z,610
2016-05-19T14:03:44.499Z,610
2016-05-19T14:04:44.440Z,635
2016-05-19T14:05:44.380Z,595
2016-05-19T14:06:58.979Z,580
2016-05-19T14:07:44.839Z,580
2016-05-19T14:08:44.700Z,565
2016-05-19T14:09:44.969Z,560
2016-05-19T14:10:44.676Z,555
2016-05-19T14:11:44.459Z,555
2016-05-19T14:12:43.523Z,550
2016-05-19T14:13:46.121Z,555
2016-05-19T14:14:44.858Z,550
2016-05-19T14:15:44.110Z,540
2016-05-19T14:16:44.239Z,540